Time;durP1;ratioP1;P1;durP2;ratioP2;P2;SDS_P1;SDS_P2;PMS_P1;PMS_P2;Temp;Humidity;BMP_temperature;BMP_pressure;BME280_temperature;BME280_humidity;BME280_pressure;Samples;Min_cycle;Max_cycle;Signal;HPM_P1;HPM_P2
2023/07/20 00:00:37;;;;;;;;;;;;;;;;;;6176132;23;20021;-56
2023/07/20 00:03:16;;;;;;;23.95;4.65;;;;;;;;;;6176469;23;20253;-56
2023/07/20 00:05:44;;;;;;;18.00;4.90;;;;;;;;;;6175560;23;20725;-57
2023/07/20 00:08:18;;;;;;;27.67;5.22;;;;;;;;;;6175346;23;20079;-62
2023/07/20 00:10:46;;;;;;;25.25;5.97;;;;;;;;;;6175839;23;20048;-58
2023/07/20 00:13:15;;;;;;;26.10;5.57;;;;;;;;;;6174754;23;20072;-58
2023/07/20 00:15:49;;;;;;;24.50;4.75;;;;;;;;;;6175017;23;20290;-58
2023/07/20 00:18:23;;;;;;;21.70;4.93;;;;;;;;;;6175891;23;20025;-58
2023/07/20 00:20:59;;;;;;;21.45;4.80;;;;;;;;;;6176879;23;20099;-58
2023/07/20 00:23:27;;;;;;;26.52;5.10;;;;;;;;;;6175664;23;20432;-58
2023/07/20 00:25:54;;;;;;;25.73;4.75;;;;;;;;;;6177059;23;20091;-59
2023/07/20 00:28:27;;;;;;;23.92;4.95;;;;;;;;;;6177195;23;20028;-55
2023/07/20 00:30:55;;;;;;;19.38;4.50;;;;;;;;;;6177850;23;20021;-53
2023/07/20 00:33:29;;;;;;;19.92;4.60;;;;;;;;;;6175111;23;20025;-53
2023/07/20 00:35:56;;;;;;;23.05;4.50;;;;;;;;;;6147475;23;20579;-59
2023/07/20 00:38:23;;;;;;;24.85;4.55;;;;;;;;;;6175438;23;20028;-59
2023/07/20 00:40:57;;;;;;;24.00;5.03;;;;;;;;;;6176898;23;20053;-57
2023/07/20 00:43:24;;;;;;;19.85;4.10;;;;;;;;;;6176536;23;20020;-58
2023/07/20 00:45:59;;;;;;;21.17;4.13;;;;;;;;;;6151812;23;20048;-58
2023/07/20 00:48:26;;;;;;;;;;;;;;;;;;6174990;23;20028;-57
2023/07/20 00:50:53;;;;;;;16.25;4.45;;;;;;;;;;6176686;23;19991;-58
2023/07/20 00:53:27;;;;;;;19.20;5.00;;;;;;;;;;6175616;23;20025;-58
2023/07/20 00:55:55;;;;;;;21.38;4.18;;;;;;;;;;6175194;23;20029;-59
2023/07/20 00:58:30;;;;;;;21.55;4.00;;;;;;;;;;6175682;23;20247;-59
2023/07/20 01:00:57;;;;;;;19.92;4.50;;;;;;;;;;6175174;23;20088;-60
2023/07/20 01:03:24;;;;;;;22.25;4.28;;;;;;;;;;6170826;23;20877;-59
2023/07/20 01:06:02;;;;;;;17.73;3.63;;;;;;;;;;6176203;23;20241;-60
2023/07/20 01:08:42;;;;;;;14.98;4.00;;;;;;;;;;6175235;23;20025;-62
2023/07/20 01:11:18;;;;;;;19.77;4.00;;;;;;;;;;6175390;23;20539;-62
2023/07/20 01:13:45;;;;;;;20.98;4.45;;;;;;;;;;6175300;23;20028;-62
2023/07/20 01:16:19;;;;;;;20.33;4.22;;;;;;;;;;6175989;23;20804;-62
2023/07/20 01:18:54;;;;;;;20.40;4.10;;;;;;;;;;6175056;23;20056;-62
2023/07/20 01:21:32;;;;;;;24.30;4.38;;;;;;;;;;6176723;23;20021;-62
2023/07/20 01:24:14;;;;;;;15.20;4.00;;;;;;;;;;6174715;23;20075;-55
2023/07/20 01:27:16;;;;;;;16.80;3.72;;;;;;;;;;6175949;23;20048;-53
2023/07/20 01:30:05;;;;;;;17.25;4.70;;;;;;;;;;6173028;23;20734;-52
2023/07/20 01:32:33;;;;;;;15.32;3.67;;;;;;;;;;6174778;23;20500;-63
2023/07/20 01:35:14;;;;;;;23.27;4.20;;;;;;;;;;6173823;23;20021;-62
2023/07/20 01:37:46;;;;;;;14.52;4.30;;;;;;;;;;6148555;23;20084;-59
2023/07/20 01:40:22;;;;;;;23.02;4.30;;;;;;;;;;6173144;23;20383;-59
2023/07/20 01:42:49;;;;;;;19.50;3.80;;;;;;;;;;6174707;23;20959;-58
2023/07/20 01:45:16;;;;;;;18.42;3.67;;;;;;;;;;6175502;23;20523;-59
2023/07/20 01:47:50;;;;;;;27.63;4.50;;;;;;;;;;6174450;23;20028;-58
2023/07/20 01:50:18;;;;;;;22.23;4.43;;;;;;;;;;6176160;23;20036;-59
2023/07/20 01:52:51;;;;;;;25.50;4.82;;;;;;;;;;6176395;23;20031;-57
2023/07/20 01:55:19;;;;;;;21.30;4.35;;;;;;;;;;6175444;23;20024;-57
2023/07/20 01:57:46;;;;;;;16.52;4.05;;;;;;;;;;6173899;23;20076;-59
2023/07/20 02:00:23;;;;;;;22.98;3.97;;;;;;;;;;6175717;23;20029;-58
2023/07/20 02:02:51;;;;;;;17.75;4.30;;;;;;;;;;6174727;23;20021;-49
2023/07/20 02:05:25;;;;;;;20.85;4.15;;;;;;;;;;6174782;23;20036;-63
2023/07/20 02:07:52;;;;;;;23.75;4.35;;;;;;;;;;6175747;23;20061;-62
2023/07/20 02:10:20;;;;;;;23.58;5.07;;;;;;;;;;6175188;23;20492;-63
2023/07/20 02:12:54;;;;;;;18.70;3.83;;;;;;;;;;6174291;23;20028;-62
2023/07/20 02:15:21;;;;;;;;;;;;;;;;;;6176531;23;20036;-62
2023/07/20 02:18:03;;;;;;;29.50;4.28;;;;;;;;;;6172986;23;19938;-62
2023/07/20 02:20:37;;;;;;;22.70;4.65;;;;;;;;;;6175760;23;20052;-54
2023/07/20 02:23:11;;;;;;;22.35;4.72;;;;;;;;;;6174720;23;20025;-55
2023/07/20 02:25:44;;;;;;;22.13;4.22;;;;;;;;;;6168900;23;20476;-55
2023/07/20 02:28:14;;;;;;;22.35;4.80;;;;;;;;;;6175949;23;20021;-52
2023/07/20 02:30:41;;;;;;;21.08;5.22;;;;;;;;;;6174256;23;20021;-58
2023/07/20 02:33:15;;;;;;;23.13;4.72;;;;;;;;;;6175069;23;20021;-60
2023/07/20 02:35:42;;;;;;;23.15;4.85;;;;;;;;;;6175103;23;20079;-60
2023/07/20 02:38:15;;;;;;;26.15;4.55;;;;;;;;;;6174915;23;20096;-59
2023/07/20 02:40:43;;;;;;;19.73;3.97;;;;;;;;;;6176247;23;20431;-59
2023/07/20 02:43:10;;;;;;;28.23;5.30;;;;;;;;;;6176594;23;20029;-59
2023/07/20 02:45:43;;;;;;;21.30;3.90;;;;;;;;;;6176612;23;20036;-60
2023/07/20 02:48:11;;;;;;;24.05;4.80;;;;;;;;;;6175815;23;20432;-59
2023/07/20 02:50:44;;;;;;;22.05;5.22;;;;;;;;;;6175467;23;20087;-59
2023/07/20 02:53:12;;;;;;;21.55;3.88;;;;;;;;;;6173951;23;20488;-58
2023/07/20 02:55:39;;;;;;;28.00;4.78;;;;;;;;;;6172782;23;20024;-58
2023/07/20 02:58:13;;;;;;;22.17;4.22;;;;;;;;;;6175006;23;20028;-59
2023/07/20 03:00:42;;;;;;;20.92;4.63;;;;;;;;;;6174587;23;20547;-54
2023/07/20 03:03:17;;;;;;;29.70;5.18;;;;;;;;;;6171518;23;20163;-56
2023/07/20 03:05:44;;;;;;;16.55;4.10;;;;;;;;;;6174617;23;20021;-55
2023/07/20 03:08:11;;;;;;;25.60;5.05;;;;;;;;;;6173595;23;20080;-53
2023/07/20 03:10:46;;;;;;;21.75;4.38;;;;;;;;;;6175029;23;20025;-51
2023/07/20 03:13:13;;;;;;;22.63;4.22;;;;;;;;;;6148358;23;20075;-54
2023/07/20 03:15:41;;;;;;;23.05;4.80;;;;;;;;;;6175013;23;20428;-55
2023/07/20 03:18:21;;;;;;;23.05;4.45;;;;;;;;;;6173636;23;20501;-57
2023/07/20 03:20:48;;;;;;;24.73;4.38;;;;;;;;;;6175212;23;20481;-57
2023/07/20 03:23:23;;;;;;;24.75;5.03;;;;;;;;;;6173659;23;20032;-57
2023/07/20 03:25:50;;;;;;;19.38;3.80;;;;;;;;;;6174943;23;20028;-58
2023/07/20 03:28:17;;;;;;;15.77;4.18;;;;;;;;;;6172993;23;20022;-59
2023/07/20 03:31:00;;;;;;;18.75;4.40;;;;;;;;;;6174991;23;20029;-59
2023/07/20 03:33:28;;;;;;;17.88;4.28;;;;;;;;;;6174800;23;20025;-58
2023/07/20 03:36:03;;;;;;;20.48;4.10;;;;;;;;;;6173800;23;20029;-59
2023/07/20 03:38:30;;;;;;;17.85;4.05;;;;;;;;;;6173259;23;20025;-58
2023/07/20 03:40:58;;;;;;;17.75;3.95;;;;;;;;;;6175245;23;20465;-58
2023/07/20 03:43:33;;;;;;;26.95;3.92;;;;;;;;;;6174360;23;20075;-58
2023/07/20 03:46:00;;;;;;;17.33;3.83;;;;;;;;;;6175028;23;20029;-62
2023/07/20 03:48:27;;;;;;;18.02;3.95;;;;;;;;;;6175494;23;20025;-61
2023/07/20 03:51:01;;;;;;;18.88;3.80;;;;;;;;;;6176491;23;20025;-62
2023/07/20 03:53:28;;;;;;;9.73;3.30;;;;;;;;;;6175414;23;20481;-62
2023/07/20 03:56:02;;;;;;;18.30;3.85;;;;;;;;;;6175950;23;20029;-59
2023/07/20 03:58:30;;;;;;;21.98;4.32;;;;;;;;;;6176417;23;20029;-59
2023/07/20 04:00:58;;;;;;;18.15;3.90;;;;;;;;;;6175719;23;20025;-58
2023/07/20 04:03:31;;;;;;;22.20;3.72;;;;;;;;;;6176167;23;20111;-58
2023/07/20 04:05:59;;;;;;;21.95;3.85;;;;;;;;;;6177826;23;20028;-58
2023/07/20 04:08:33;;;;;;;16.92;3.83;;;;;;;;;;6174016;23;20033;-59
2023/07/20 04:11:01;;;;;;;20.35;3.80;;;;;;;;;;6176383;23;20481;-58
2023/07/20 04:13:30;;;;;;;21.65;3.45;;;;;;;;;;6176265;23;20021;-58
2023/07/20 04:16:05;;;;;;;12.70;3.40;;;;;;;;;;6176489;23;20028;-59
2023/07/20 04:18:38;;;;;;;19.02;3.45;;;;;;;;;;6173739;23;20395;-58
2023/07/20 04:21:18;;;;;;;16.30;3.30;;;;;;;;;;6176641;23;20436;-59
2023/07/20 04:23:45;;;;;;;11.77;2.90;;;;;;;;;;6174989;23;20032;-58
2023/07/20 04:26:19;;;;;;;14.18;3.35;;;;;;;;;;6173894;23;20551;-60
2023/07/20 04:28:47;;;;;;;;;;;;;;;;;;6176101;23;20113;-61
2023/07/20 04:31:15;;;;;;;11.98;3.00;;;;;;;;;;6177204;23;19927;-60
2023/07/20 04:33:48;;;;;;;12.65;2.88;;;;;;;;;;6174834;23;20481;-61
2023/07/20 04:36:19;;;;;;;13.60;2.78;;;;;;;;;;6175978;23;20021;-61
2023/07/20 04:38:53;;;;;;;10.23;3.03;;;;;;;;;;6175735;23;20079;-61
2023/07/20 04:41:26;;;;;;;11.38;2.90;;;;;;;;;;6177515;23;20025;-54
2023/07/20 04:43:54;;;;;;;13.52;2.70;;;;;;;;;;6175767;23;20079;-54
2023/07/20 04:46:21;;;;;;;13.70;3.05;;;;;;;;;;6175477;23;20041;-55
2023/07/20 04:48:56;;;;;;;9.50;2.38;;;;;;;;;;6175024;23;20324;-54
2023/07/20 04:51:30;;;;;;;9.50;2.38;;;;;;;;;;6175608;23;20032;-58
2023/07/20 04:53:57;;;;;;;;;;;;;;;;;;6175933;23;20079;-49
2023/07/20 04:56:24;;;;;;;11.75;2.40;;;;;;;;;;6175268;23;19920;-59
2023/07/20 04:58:58;;;;;;;9.13;2.67;;;;;;;;;;6176073;23;20021;-59
2023/07/20 05:01:28;;;;;;;10.38;2.65;;;;;;;;;;6174959;23;20029;-56
2023/07/20 05:04:03;;;;;;;6.70;2.15;;;;;;;;;;6176368;23;20025;-58
2023/07/20 05:06:30;;;;;;;8.15;2.47;;;;;;;;;;6168906;23;20361;-58
2023/07/20 05:08:57;;;;;;;11.82;2.72;;;;;;;;;;6148398;23;20218;-59
2023/07/20 05:11:30;;;;;;;7.70;2.25;;;;;;;;;;6174546;23;20021;-59
2023/07/20 05:13:58;;;;;;;5.72;1.92;;;;;;;;;;6174924;23;20087;-58
2023/07/20 05:16:31;;;;;;;5.88;2.00;;;;;;;;;;6175827;23;20452;-57
2023/07/20 05:19:05;;;;;;;8.07;2.15;;;;;;;;;;6175111;23;20429;-58
2023/07/20 05:21:38;;;;;;;6.82;2.03;;;;;;;;;;6175499;23;20032;-49
2023/07/20 05:24:06;;;;;;;6.82;2.15;;;;;;;;;;6174337;23;20021;-59
2023/07/20 05:26:34;;;;;;;6.47;2.08;;;;;;;;;;6176571;23;20029;-59
2023/07/20 05:29:08;;;;;;;5.57;1.77;;;;;;;;;;6174526;23;20399;-59
2023/07/20 05:31:35;;;;;;;11.25;2.10;;;;;;;;;;6175363;23;20025;-59
2023/07/20 05:34:09;;;;;;;7.82;2.30;;;;;;;;;;6174177;23;20017;-59
2023/07/20 05:36:37;;;;;;;9.30;2.30;;;;;;;;;;6173992;23;20489;-59
2023/07/20 05:39:11;;;;;;;7.20;1.60;;;;;;;;;;6174733;23;20035;-61
2023/07/20 05:41:38;;;;;;;7.03;1.80;;;;;;;;;;6176155;23;20029;-60
2023/07/20 05:44:06;;;;;;;9.82;2.30;;;;;;;;;;6174572;23;20447;-61
2023/07/20 05:46:39;;;;;;;9.60;1.70;;;;;;;;;;6175431;23;20029;-60
2023/07/20 05:49:23;;;;;;;7.65;2.38;;;;;;;;;;6173647;23;20104;-55
2023/07/20 05:51:57;;;;;;;3.75;1.65;;;;;;;;;;6176831;23;20025;-59
2023/07/20 05:54:25;;;;;;;7.18;1.98;;;;;;;;;;6173902;23;20067;-58
2023/07/20 05:56:52;;;;;;;6.28;1.70;;;;;;;;;;6175305;23;20025;-58
2023/07/20 05:59:29;;;;;;;10.38;1.90;;;;;;;;;;6175291;23;20028;-59
2023/07/20 06:01:56;;;;;;;9.50;2.05;;;;;;;;;;6175187;23;20084;-59
2023/07/20 06:04:31;;;;;;;6.82;1.83;;;;;;;;;;6173396;23;20028;-59
2023/07/20 06:06:58;;;;;;;6.05;1.60;;;;;;;;;;6175615;23;20028;-62
2023/07/20 06:09:27;;;;;;;6.93;1.70;;;;;;;;;;6174120;23;20061;-63
2023/07/20 06:12:01;;;;;;;8.48;1.70;;;;;;;;;;6176585;23;20029;-62
2023/07/20 06:14:28;;;;;;;6.63;1.52;;;;;;;;;;6173976;23;20025;-61
2023/07/20 06:16:55;;;;;;;6.47;1.73;;;;;;;;;;6172717;23;20091;-55
2023/07/20 06:19:35;;;;;;;6.10;1.70;;;;;;;;;;6173245;23;20083;-61
2023/07/20 06:22:03;;;;;;;9.20;1.65;;;;;;;;;;6174693;23;20025;-61
2023/07/20 06:24:37;;;;;;;7.32;1.80;;;;;;;;;;6173707;23;20539;-61
2023/07/20 06:27:05;;;;;;;6.22;1.55;;;;;;;;;;6176672;23;20025;-61
2023/07/20 06:29:33;;;;;;;6.13;1.35;;;;;;;;;;6147969;23;20402;-61
2023/07/20 06:32:07;;;;;;;5.20;1.50;;;;;;;;;;6170018;23;20032;-62
2023/07/20 06:34:37;;;;;;;;;;;;;;;;;;6175072;23;20072;-62
2023/07/20 06:37:11;;;;;;;7.30;1.60;;;;;;;;;;6176055;23;19983;-62
2023/07/20 06:39:39;;;;;;;5.95;1.58;;;;;;;;;;6175609;23;20029;-63
2023/07/20 06:42:09;;;;;;;5.97;1.48;;;;;;;;;;6185983;23;20028;-62
2023/07/20 06:44:43;;;;;;;9.25;1.70;;;;;;;;;;6175304;23;20025;-62
2023/07/20 06:47:10;;;;;;;6.43;1.83;;;;;;;;;;6177325;23;20080;-50
2023/07/20 06:49:44;;;;;;;6.63;1.35;;;;;;;;;;6174788;23;20448;-61
2023/07/20 06:52:11;;;;;;;5.45;1.40;;;;;;;;;;6175797;23;20075;-61
2023/07/20 06:54:38;;;;;;;6.65;1.52;;;;;;;;;;6174254;23;20020;-61
2023/07/20 06:57:12;;;;;;;3.75;1.30;;;;;;;;;;6175817;23;20025;-61
2023/07/20 06:59:42;;;;;;;7.97;1.90;;;;;;;;;;6184938;23;20036;-61
2023/07/20 07:02:16;;;;;;;8.27;1.88;;;;;;;;;;6175099;23;20017;-61
2023/07/20 07:04:43;;;;;;;7.15;1.55;;;;;;;;;;6174628;23;20056;-62
2023/07/20 07:07:10;;;;;;;7.75;1.58;;;;;;;;;;6173341;23;20244;-63
2023/07/20 07:09:47;;;;;;;6.90;1.63;;;;;;;;;;6174832;23;20496;-62
2023/07/20 07:12:15;;;;;;;8.05;2.10;;;;;;;;;;6175307;23;20072;-63
2023/07/20 07:14:42;;;;;;;4.80;1.48;;;;;;;;;;6171296;23;20380;-57
2023/07/20 07:17:29;;;;;;;12.07;1.98;;;;;;;;;;6174803;23;20025;-57
2023/07/20 07:20:04;;;;;;;;;;;;;;;;;;6175752;23;20025;-56
2023/07/20 07:22:46;;;;;;;5.45;1.52;;;;;;;;;;6174712;23;20371;-57
2023/07/20 07:25:14;;;;;;;5.28;1.80;;;;;;;;;;6175042;23;20080;-57
2023/07/20 07:27:50;;;;;;;4.68;1.60;;;;;;;;;;6172973;23;20028;-57
2023/07/20 07:30:17;;;;;;;3.92;1.10;;;;;;;;;;6173410;23;20080;-56
2023/07/20 07:32:44;;;;;;;3.20;1.30;;;;;;;;;;6177100;23;20061;-58
2023/07/20 07:35:18;;;;;;;4.80;1.35;;;;;;;;;;6175771;23;20028;-58
2023/07/20 07:37:46;;;;;;;4.05;1.40;;;;;;;;;;6176965;23;20024;-59
2023/07/20 07:40:40;;;;;;;8.32;1.70;;;;;;;;;;6175817;23;20539;-58
2023/07/20 07:43:08;;;;;;;7.75;1.38;;;;;;;;;;6172439;23;20108;-58
2023/07/20 07:45:43;;;;;;;6.03;1.17;;;;;;;;;;6174146;23;20373;-62
2023/07/20 07:48:14;;;;;;;8.25;1.70;;;;;;;;;;6175598;23;20476;-62
2023/07/20 07:50:41;;;;;;;6.60;1.10;;;;;;;;;;6172348;23;20056;-62
2023/07/20 07:53:16;;;;;;;5.43;1.80;;;;;;;;;;6150846;23;20079;-62
2023/07/20 07:55:43;;;;;;;6.82;1.98;;;;;;;;;;6174307;23;20477;-63
2023/07/20 07:58:17;;;;;;;5.05;1.38;;;;;;;;;;6175234;23;20076;-63
2023/07/20 08:00:45;;;;;;;5.82;1.58;;;;;;;;;;6177231;23;20021;-50
2023/07/20 08:03:12;;;;;;;3.97;1.27;;;;;;;;;;6176462;23;20100;-52
2023/07/20 08:05:46;;;;;;;6.07;1.20;;;;;;;;;;6175391;23;20436;-51
2023/07/20 08:08:13;;;;;;;4.85;1.30;;;;;;;;;;6175036;23;20150;-52
2023/07/20 08:10:47;;;;;;;7.68;1.30;;;;;;;;;;6176334;23;20060;-59
2023/07/20 08:13:21;;;;;;;6.53;1.40;;;;;;;;;;6175512;23;20468;-62
2023/07/20 08:15:53;;;;;;;4.38;0.82;;;;;;;;;;6176176;23;20021;-62
2023/07/20 08:18:34;;;;;;;1.83;0.75;;;;;;;;;;6173862;23;20450;-62
2023/07/20 08:21:02;;;;;;;3.00;0.90;;;;;;;;;;6171045;23;20096;-63
2023/07/20 08:23:36;;;;;;;3.72;1.20;;;;;;;;;;6174668;23;20021;-62
2023/07/20 08:26:04;;;;;;;3.63;1.00;;;;;;;;;;6177706;23;20035;-62
2023/07/20 08:28:31;;;;;;;4.25;1.05;;;;;;;;;;6174553;23;20029;-63
2023/07/20 08:31:07;;;;;;;8.88;1.10;;;;;;;;;;6177651;23;20365;-57
2023/07/20 08:33:34;;;;;;;2.70;1.15;;;;;;;;;;6173809;23;20028;-57
2023/07/20 08:36:09;;;;;;;3.22;0.95;;;;;;;;;;6175552;23;20091;-58
2023/07/20 08:38:38;;;;;;;3.83;1.20;;;;;;;;;;6176256;23;20017;-58
2023/07/20 08:41:05;;;;;;;5.03;1.15;;;;;;;;;;6176182;23;20025;-53
2023/07/20 08:43:41;;;;;;;12.70;1.52;;;;;;;;;;6174461;23;20495;-58
2023/07/20 08:46:09;;;;;;;2.05;0.80;;;;;;;;;;6174179;23;20072;-58
2023/07/20 08:48:37;;;;;;;5.30;1.05;;;;;;;;;;6174587;23;20472;-58
2023/07/20 08:51:12;;;;;;;3.30;0.80;;;;;;;;;;6173719;23;20033;-58
2023/07/20 08:53:40;;;;;;;2.83;1.10;;;;;;;;;;6177030;23;20464;-58
2023/07/20 08:56:15;;;;;;;2.42;0.90;;;;;;;;;;6175831;23;20024;-58
2023/07/20 08:58:44;;;;;;;2.17;0.73;;;;;;;;;;6149376;23;20551;-59
2023/07/20 09:01:11;;;;;;;3.83;0.90;;;;;;;;;;6175627;23;20433;-58
2023/07/20 09:03:46;;;;;;;4.95;0.95;;;;;;;;;;6171973;23;20032;-58
2023/07/20 09:06:13;;;;;;;3.28;0.98;;;;;;;;;;6176434;23;20027;-58
2023/07/20 09:08:49;;;;;;;4.35;1.20;;;;;;;;;;6175830;23;20032;-58
2023/07/20 09:11:16;;;;;;;3.88;1.05;;;;;;;;;;6177220;23;20021;-58
2023/07/20 09:13:44;;;;;;;2.63;0.60;;;;;;;;;;6170141;23;20496;-57
2023/07/20 09:16:18;;;;;;;3.63;1.02;;;;;;;;;;6176165;23;20025;-58
2023/07/20 09:18:51;;;;;;;3.08;1.13;;;;;;;;;;6175685;23;20392;-58
2023/07/20 09:21:33;;;;;;;2.30;0.95;;;;;;;;;;6176370;23;20436;-58
2023/07/20 09:24:01;;;;;;;6.20;1.08;;;;;;;;;;6171803;23;20492;-58
2023/07/20 09:26:40;;;;;;;5.53;1.05;;;;;;;;;;6151757;23;20084;-58
2023/07/20 09:29:15;;;;;;;3.65;0.57;;;;;;;;;;6176341;23;20427;-59
2023/07/20 09:31:43;;;;;;;3.72;0.90;;;;;;;;;;6174251;23;20069;-58
2023/07/20 09:34:10;;;;;;;4.28;0.88;;;;;;;;;;6174095;23;20048;-57
2023/07/20 09:37:04;;;;;;;3.28;0.68;;;;;;;;;;6171767;23;20024;-58
2023/07/20 09:39:32;;;;;;;2.88;0.88;;;;;;;;;;6172993;23;20495;-57
2023/07/20 09:42:27;;;;;;;4.32;1.05;;;;;;;;;;6175099;23;20052;-57
2023/07/20 09:44:57;;;;;;;1.63;0.68;;;;;;;;;;6181474;23;20029;-57
2023/07/20 09:47:33;;;;;;;3.33;0.90;;;;;;;;;;6174455;23;20033;-57
2023/07/20 09:50:00;;;;;;;2.05;0.60;;;;;;;;;;6172512;23;20032;-57
2023/07/20 09:52:44;;;;;;;1.95;0.50;;;;;;;;;;6181215;23;20432;-56
2023/07/20 09:55:14;;;;;;;3.33;1.00;;;;;;;;;;6171981;23;20028;-49
2023/07/20 09:57:48;;;;;;;1.98;0.60;;;;;;;;;;6174415;23;20496;-50
2023/07/20 10:00:16;;;;;;;;;;;;;;;;;;6175100;23;20020;-48
2023/07/20 10:02:52;;;;;;;1.85;0.45;;;;;;;;;;6182751;23;19920;-48
2023/07/20 10:05:20;;;;;;;2.58;0.60;;;;;;;;;;6172647;23;20520;-49
2023/07/20 10:07:49;;;;;;;2.65;0.73;;;;;;;;;;6174802;23;20172;-55
2023/07/20 10:10:26;;;;;;;2.88;1.05;;;;;;;;;;6175574;23;20515;-55
2023/07/20 10:12:53;;;;;;;;;;;;;;;;;;6176853;23;20608;-57
2023/07/20 10:15:37;;;;;;;2.85;1.00;;;;;;;;;;6175794;23;19920;-57
2023/07/20 10:18:10;;;;;;;4.65;0.80;;;;;;;;;;6174988;23;20025;-56
2023/07/20 10:20:51;;;;;;;3.78;0.85;;;;;;;;;;6175988;23;20028;-57
2023/07/20 10:23:30;;;;;;;2.83;0.77;;;;;;;;;;6187187;23;20028;-62
2023/07/20 10:25:58;;;;;;;1.33;0.60;;;;;;;;;;6175172;23;20044;-62
2023/07/20 10:28:32;;;;;;;4.63;0.80;;;;;;;;;;6150536;23;20029;-62
2023/07/20 10:30:59;;;;;;;;;;;;;;;;;;6176936;23;20021;-62
2023/07/20 10:33:26;;;;;;;3.58;0.82;;;;;;;;;;6173584;23;20375;-61
2023/07/20 10:36:02;;;;;;;3.63;0.75;;;;;;;;;;6176454;23;20349;-58
2023/07/20 10:38:48;;;;;;;3.30;1.25;;;;;;;;;;6175449;23;20017;-57
2023/07/20 10:41:25;;;;;;;2.15;0.60;;;;;;;;;;6174622;23;20637;-57
2023/07/20 10:43:58;;;;;;;2.97;0.98;;;;;;;;;;6175892;23;20099;-57
2023/07/20 10:46:45;;;;;;;1.80;0.68;;;;;;;;;;6174980;23;20547;-58
2023/07/20 10:49:26;;;;;;;1.90;0.60;;;;;;;;;;6175613;23;20510;-58
2023/07/20 10:52:01;;;;;;;2.72;0.57;;;;;;;;;;6177482;23;20025;-56
2023/07/20 10:54:28;;;;;;;3.25;0.90;;;;;;;;;;6174048;23;20076;-58
2023/07/20 10:57:18;;;;;;;2.75;0.80;;;;;;;;;;6175752;23;20029;-57
2023/07/20 10:59:52;;;;;;;2.47;0.57;;;;;;;;;;6174979;23;20023;-57
2023/07/20 11:02:25;;;;;;;3.03;0.90;;;;;;;;;;6174939;23;20305;-57
2023/07/20 11:05:00;;;;;;;4.57;0.82;;;;;;;;;;6151041;23;20025;-52
2023/07/20 11:07:47;;;;;;;3.70;0.70;;;;;;;;;;6176134;23;20042;-50
2023/07/20 11:10:21;;;;;;;0.90;0.55;;;;;;;;;;6174405;23;20559;-49
2023/07/20 11:13:13;;;;;;;1.77;0.55;;;;;;;;;;6175901;23;20021;-51
2023/07/20 11:16:00;;;;;;;2.28;0.65;;;;;;;;;;6174834;23;20531;-50
2023/07/20 11:18:43;;;;;;;3.05;0.73;;;;;;;;;;6174031;23;20096;-52
2023/07/20 11:21:11;;;;;;;2.92;0.63;;;;;;;;;;6150511;23;20428;-58
2023/07/20 11:23:46;;;;;;;3.38;0.60;;;;;;;;;;6175424;23;20432;-58
2023/07/20 11:26:15;;;;;;;1.50;0.52;;;;;;;;;;6175085;23;20033;-58
2023/07/20 11:28:52;;;;;;;3.70;0.82;;;;;;;;;;6173003;23;20032;-58
2023/07/20 11:31:19;;;;;;;2.42;0.60;;;;;;;;;;6175339;23;20064;-61
2023/07/20 11:33:53;;;;;;;3.70;0.80;;;;;;;;;;6174035;23;20489;-57
2023/07/20 11:36:20;;;;;;;3.15;0.60;;;;;;;;;;6174672;23;20071;-58
2023/07/20 11:38:50;;;;;;;3.50;0.57;;;;;;;;;;6186318;23;20087;-56
2023/07/20 11:41:26;;;;;;;2.58;0.95;;;;;;;;;;6174881;23;20032;-57
2023/07/20 11:43:54;;;;;;;2.15;0.80;;;;;;;;;;6174759;23;20025;-57
2023/07/20 11:46:29;;;;;;;1.48;0.47;;;;;;;;;;6175543;23;20436;-57
2023/07/20 11:48:59;;;;;;;2.30;0.77;;;;;;;;;;6176057;23;20022;-57
2023/07/20 11:51:30;;;;;;;1.60;0.57;;;;;;;;;;6174825;23;20021;-57
2023/07/20 11:54:04;;;;;;;2.17;0.70;;;;;;;;;;6175031;23;20558;-58
2023/07/20 11:56:32;;;;;;;3.17;0.73;;;;;;;;;;6174501;23;20055;-57
2023/07/20 11:59:07;;;;;;;2.00;0.68;;;;;;;;;;6176246;23;20576;-49
2023/07/20 12:01:35;;;;;;;2.90;0.40;;;;;;;;;;6175299;23;20354;-59
2023/07/20 12:04:06;;;;;;;3.35;0.50;;;;;;;;;;6174649;23;20021;-59
2023/07/20 12:06:41;;;;;;;2.22;0.55;;;;;;;;;;6175205;23;20103;-58
2023/07/20 12:09:14;;;;;;;0.98;0.40;;;;;;;;;;6174522;23;20085;-59
2023/07/20 12:11:50;;;;;;;2.22;0.80;;;;;;;;;;6177490;23;20079;-59
2023/07/20 12:14:17;;;;;;;0.45;0.30;;;;;;;;;;6176828;23;20029;-59
2023/07/20 12:16:58;;;;;;;2.97;0.70;;;;;;;;;;6177586;23;20489;-58
2023/07/20 12:19:33;;;;;;;1.50;0.52;;;;;;;;;;6175146;23;20481;-58
2023/07/20 12:22:13;;;;;;;2.75;0.98;;;;;;;;;;6176233;23;20064;-58
2023/07/20 12:24:41;;;;;;;0.63;0.50;;;;;;;;;;6176009;23;20095;-59
2023/07/20 12:27:16;;;;;;;3.97;0.60;;;;;;;;;;6176886;23;20072;-58
2023/07/20 12:29:45;;;;;;;4.80;0.55;;;;;;;;;;6177669;23;20104;-62
2023/07/20 12:32:12;;;;;;;5.40;0.80;;;;;;;;;;6175253;23;20025;-62
2023/07/20 12:34:48;;;;;;;2.78;0.60;;;;;;;;;;6174965;23;20029;-61
2023/07/20 12:37:18;;;;;;;2.67;1.08;;;;;;;;;;6177144;23;20083;-62
2023/07/20 12:39:52;;;;;;;2.42;0.95;;;;;;;;;;6175490;23;20029;-62
2023/07/20 12:42:19;;;;;;;3.83;0.70;;;;;;;;;;6175464;23;20496;-62
2023/07/20 12:44:49;;;;;;;6.30;1.15;;;;;;;;;;6175817;23;20067;-61
2023/07/20 12:47:23;;;;;;;2.53;0.40;;;;;;;;;;6177067;23;20571;-62
2023/07/20 12:49:50;;;;;;;4.30;0.60;;;;;;;;;;6175512;23;20052;-62
2023/07/20 12:52:17;;;;;;;4.72;0.70;;;;;;;;;;6177161;23;20056;-62
2023/07/20 12:54:51;;;;;;;2.83;0.52;;;;;;;;;;6174296;23;20079;-62
2023/07/20 12:57:18;;;;;;;;;;;;;;;;;;6178028;23;20025;-52
2023/07/20 12:59:45;;;;;;;2.17;0.57;;;;;;;;;;6174361;23;19916;-59
2023/07/20 13:02:19;;;;;;;1.48;0.50;;;;;;;;;;6176584;23;20083;-59
2023/07/20 13:04:46;;;;;;;1.35;0.40;;;;;;;;;;6176028;23;20025;-58
2023/07/20 13:07:29;;;;;;;1.40;0.60;;;;;;;;;;6177520;23;20028;-59
2023/07/20 13:10:00;;;;;;;2.67;0.77;;;;;;;;;;6185888;23;20468;-58
2023/07/20 13:12:35;;;;;;;3.15;0.82;;;;;;;;;;6176686;23;20076;-59
2023/07/20 13:15:10;;;;;;;2.85;0.65;;;;;;;;;;6175786;23;20530;-59
2023/07/20 13:17:41;;;;;;;4.38;0.80;;;;;;;;;;6175233;23;20083;-58
2023/07/20 13:20:10;;;;;;;6.55;0.52;;;;;;;;;;6176296;23;20064;-58
2023/07/20 13:22:45;;;;;;;0.98;0.25;;;;;;;;;;6175977;23;20088;-58
2023/07/20 13:25:12;;;;;;;1.38;0.50;;;;;;;;;;6175493;23;20048;-63
2023/07/20 13:27:48;;;;;;;0.68;0.30;;;;;;;;;;6176895;23;20028;-51
2023/07/20 13:30:19;;;;;;;4.00;0.90;;;;;;;;;;6176989;23;20227;-51
2023/07/20 13:32:54;;;;;;;2.13;0.47;;;;;;;;;;6171708;23;20033;-51
2023/07/20 13:35:21;;;;;;;;;;;;;;;;;;6176497;23;20028;-48
2023/07/20 13:37:49;;;;;;;2.05;0.68;;;;;;;;;;6175907;23;19920;-50
2023/07/20 13:40:24;;;;;;;3.95;0.82;;;;;;;;;;6174686;23;20087;-51
2023/07/20 13:42:51;;;;;;;;;;;;;;;;;;6177966;23;20017;-57
2023/07/20 13:45:26;;;;;;;2.53;0.60;;;;;;;;;;6173885;23;19939;-57
2023/07/20 13:47:53;;;;;;;4.88;0.50;;;;;;;;;;6176655;23;20040;-57
2023/07/20 13:50:21;;;;;;;;;;;;;;;;;;6176736;23;20029;-56
2023/07/20 13:53:06;;;;;;;1.60;0.60;;;;;;;;;;6175561;23;19920;-56
2023/07/20 13:55:38;;;;;;;2.35;0.47;;;;;;;;;;6184745;23;20443;-57
2023/07/20 13:58:15;;;;;;;2.88;0.68;;;;;;;;;;6187469;23;20029;-57
2023/07/20 14:00:42;;;;;;;5.38;0.55;;;;;;;;;;6174511;23;20032;-57
2023/07/20 14:03:09;;;;;;;;;;;;;;;;;;6175298;23;20320;-57
2023/07/20 14:05:46;;;;;;;7.55;0.77;;;;;;;;;;6175857;23;19923;-57
2023/07/20 14:08:16;;;;;;;2.70;0.50;;;;;;;;;;6185265;23;20091;-57
2023/07/20 14:10:57;;;;;;;2.15;0.90;;;;;;;;;;6175509;23;20040;-62
2023/07/20 14:13:27;;;;;;;2.85;0.73;;;;;;;;;;6185001;23;20084;-62
2023/07/20 14:16:14;;;;;;;4.55;0.80;;;;;;;;;;6174607;23;20384;-62
2023/07/20 14:18:41;;;;;;;;;;;;;;;;;;6173397;23;20341;-62
2023/07/20 14:21:23;;;;;;;1.23;0.57;;;;;;;;;;6173696;23;20292;-59
2023/07/20 14:23:58;;;;;;;1.60;0.73;;;;;;;;;;6175007;23;20032;-56
2023/07/20 14:26:28;;;;;;;6.53;1.02;;;;;;;;;;6175280;23;20025;-57
2023/07/20 14:29:00;;;;;;;5.72;1.55;;;;;;;;;;6177298;23;20025;-57
2023/07/20 14:31:34;;;;;;;6.88;1.25;;;;;;;;;;6174098;23;20029;-57
2023/07/20 14:34:01;;;;;;;;;;;;;;;;;;6151062;23;20021;-56
2023/07/20 14:36:36;;;;;;;6.25;0.82;;;;;;;;;;6175254;23;19920;-55
2023/07/20 14:39:03;;;;;;;8.85;1.50;;;;;;;;;;6176781;23;20075;-57
2023/07/20 14:41:30;;;;;;;2.50;1.00;;;;;;;;;;6175100;23;20028;-54
2023/07/20 14:44:04;;;;;;;8.82;1.73;;;;;;;;;;6176308;23;20021;-57
2023/07/20 14:46:32;;;;;;;5.75;1.00;;;;;;;;;;6175360;23;20028;-57
2023/07/20 14:48:59;;;;;;;6.70;1.45;;;;;;;;;;6174658;23;20025;-56
2023/07/20 14:51:35;;;;;;;6.53;1.33;;;;;;;;;;6176040;23;20025;-62
2023/07/20 14:54:04;;;;;;;6.70;1.13;;;;;;;;;;6176174;23;20432;-49
2023/07/20 14:56:40;;;;;;;8.07;1.35;;;;;;;;;;6174735;23;20079;-51
2023/07/20 14:59:07;;;;;;;3.33;1.20;;;;;;;;;;6176207;23;20392;-50
2023/07/20 15:01:41;;;;;;;8.02;1.92;;;;;;;;;;6174975;23;20021;-50
2023/07/20 15:04:08;;;;;;;6.22;1.65;;;;;;;;;;6176630;23;20025;-53
2023/07/20 15:06:43;;;;;;;7.47;1.48;;;;;;;;;;6173807;23;20456;-54
2023/07/20 15:09:17;;;;;;;6.85;1.50;;;;;;;;;;6175718;23;20083;-57
2023/07/20 15:11:51;;;;;;;6.03;1.52;;;;;;;;;;6174507;23;20059;-56